sensor_id;sensor_type;location;lat;lon;timestamp;P1;durP1;ratioP1;P2;durP2;ratioP2
43527;SDS011;52359;42.658;23.320;2023-12-22T12:22:57;2.80;;;1.63;;
43527;SDS011;52359;42.658;23.320;2023-12-22T12:25:23;6.63;;;2.50;;
43527;SDS011;52359;42.658;23.320;2023-12-22T12:27:50;9.27;;;2.97;;
43527;SDS011;52359;42.658;23.320;2023-12-22T12:30:26;4.38;;;2.15;;
43527;SDS011;52359;42.658;23.320;2023-12-22T12:32:52;2.35;;;1.70;;
43527;SDS011;52359;42.658;23.320;2023-12-22T12:35:18;4.50;;;2.25;;
43527;SDS011;52359;42.658;23.320;2023-12-22T12:37:47;2.13;;;1.48;;
43527;SDS011;52359;42.658;23.320;2023-12-22T12:40:13;8.05;;;2.33;;
43527;SDS011;52359;42.658;23.320;2023-12-22T12:42:41;2.85;;;1.38;;
43527;SDS011;52359;42.658;23.320;2023-12-22T12:45:08;2.00;;;1.17;;
43527;SDS011;52359;42.658;23.320;2023-12-22T12:47:34;3.80;;;1.40;;
43527;SDS011;52359;42.658;23.320;2023-12-22T12:50:00;2.47;;;1.45;;
43527;SDS011;52359;42.658;23.320;2023-12-22T12:52:27;1.33;;;1.10;;
43527;SDS011;52359;42.658;23.320;2023-12-22T12:54:53;0.95;;;0.75;;
43527;SDS011;52359;42.658;23.320;2023-12-22T12:57:19;1.27;;;1.08;;
43527;SDS011;52359;42.658;23.320;2023-12-22T12:59:50;0.98;;;0.98;;
43527;SDS011;52359;42.658;23.320;2023-12-22T13:02:19;1.75;;;1.10;;
43527;SDS011;52359;42.658;23.320;2023-12-22T13:04:46;1.00;;;1.00;;
43527;SDS011;52359;42.658;23.320;2023-12-22T13:07:12;1.45;;;1.35;;
43527;SDS011;52359;42.658;23.320;2023-12-22T13:09:38;2.47;;;1.42;;
43527;SDS011;52359;42.658;23.320;2023-12-22T13:12:04;2.08;;;1.48;;
43527;SDS011;52359;42.658;23.320;2023-12-22T13:14:30;1.05;;;1.05;;
43527;SDS011;52359;42.658;23.320;2023-12-22T13:16:57;1.50;;;1.40;;
43527;SDS011;52359;42.658;23.320;2023-12-22T13:19:23;2.13;;;1.60;;
43527;SDS011;52359;42.658;23.320;2023-12-22T13:21:55;1.90;;;1.73;;
43527;SDS011;52359;42.658;23.320;2023-12-22T13:24:21;2.72;;;1.77;;
43527;SDS011;52359;42.658;23.320;2023-12-22T13:26:58;5.22;;;2.50;;
43527;SDS011;52359;42.658;23.320;2023-12-22T13:29:26;5.07;;;2.00;;
43527;SDS011;52359;42.658;23.320;2023-12-22T13:31:51;2.78;;;2.03;;
43527;SDS011;52359;42.658;23.320;2023-12-22T13:34:17;1.10;;;1.00;;
43527;SDS011;52359;42.658;23.320;2023-12-22T13:36:43;1.48;;;1.33;;
43527;SDS011;52359;42.658;23.320;2023-12-22T13:39:09;6.65;;;1.55;;
43527;SDS011;52359;42.658;23.320;2023-12-22T13:41:41;7.15;;;1.92;;
43527;SDS011;52359;42.658;23.320;2023-12-22T13:46:39;8.00;;;2.55;;
43527;SDS011;52359;42.658;23.320;2023-12-22T13:49:07;4.10;;;1.60;;
43527;SDS011;52359;42.658;23.320;2023-12-22T13:51:52;2.78;;;2.03;;
43527;SDS011;52359;42.658;23.320;2023-12-22T13:54:18;2.58;;;2.10;;
43527;SDS011;52359;42.658;23.320;2023-12-22T13:56:44;3.08;;;1.80;;
43527;SDS011;52359;42.658;23.320;2023-12-22T13:59:11;4.93;;;2.17;;
43527;SDS011;52359;42.658;23.320;2023-12-22T14:01:37;3.70;;;2.05;;
43527;SDS011;52359;42.658;23.320;2023-12-22T14:04:03;3.17;;;2.08;;
43527;SDS011;52359;42.658;23.320;2023-12-22T14:06:28;3.30;;;1.90;;
43527;SDS011;52359;42.658;23.320;2023-12-22T14:08:55;5.75;;;2.25;;
43527;SDS011;52359;42.658;23.320;2023-12-22T14:11:21;2.65;;;2.38;;
43527;SDS011;52359;42.658;23.320;2023-12-22T14:13:47;7.10;;;1.80;;
43527;SDS011;52359;42.658;23.320;2023-12-22T14:16:12;2.10;;;1.63;;
43527;SDS011;52359;42.658;23.320;2023-12-22T14:18:40;2.00;;;1.38;;
43527;SDS011;52359;42.658;23.320;2023-12-22T14:21:06;3.90;;;1.58;;
43527;SDS011;52359;42.658;23.320;2023-12-22T14:23:32;2.60;;;1.05;;
43527;SDS011;52359;42.658;23.320;2023-12-22T14:25:58;3.00;;;1.73;;
43527;SDS011;52359;42.658;23.320;2023-12-22T14:28:23;1.33;;;1.20;;
43527;SDS011;52359;42.658;23.320;2023-12-22T14:30:49;1.92;;;1.30;;
43527;SDS011;52359;42.658;23.320;2023-12-22T14:33:16;5.47;;;2.10;;
43527;SDS011;52359;42.658;23.320;2023-12-22T14:35:41;2.22;;;1.98;;
43527;SDS011;52359;42.658;23.320;2023-12-22T14:38:07;8.98;;;1.90;;
43527;SDS011;52359;42.658;23.320;2023-12-22T14:40:33;2.35;;;1.92;;
43527;SDS011;52359;42.658;23.320;2023-12-22T14:42:58;3.38;;;2.08;;
43527;SDS011;52359;42.658;23.320;2023-12-22T14:45:26;10.20;;;2.17;;
43527;SDS011;52359;42.658;23.320;2023-12-22T14:47:52;7.63;;;2.20;;
43527;SDS011;52359;42.658;23.320;2023-12-22T14:50:18;6.93;;;2.38;;
43527;SDS011;52359;42.658;23.320;2023-12-22T14:52:44;5.38;;;1.85;;
43527;SDS011;52359;42.658;23.320;2023-12-22T14:55:10;13.13;;;2.55;;
43527;SDS011;52359;42.658;23.320;2023-12-22T14:57:36;5.28;;;2.53;;
43527;SDS011;52359;42.658;23.320;2023-12-22T15:00:02;3.53;;;2.30;;
43527;SDS011;52359;42.658;23.320;2023-12-22T15:02:29;3.67;;;2.05;;
43527;SDS011;52359;42.658;23.320;2023-12-22T15:04:55;7.35;;;2.28;;
43527;SDS011;52359;42.658;23.320;2023-12-22T15:07:20;9.85;;;1.98;;
43527;SDS011;52359;42.658;23.320;2023-12-22T15:09:46;2.83;;;1.90;;
43527;SDS011;52359;42.658;23.320;2023-12-22T15:12:13;4.47;;;1.60;;
43527;SDS011;52359;42.658;23.320;2023-12-22T15:14:46;7.78;;;2.20;;
43527;SDS011;52359;42.658;23.320;2023-12-22T15:17:12;7.72;;;1.88;;
43527;SDS011;52359;42.658;23.320;2023-12-22T15:19:40;3.05;;;1.58;;
43527;SDS011;52359;42.658;23.320;2023-12-22T15:22:07;6.28;;;1.92;;
43527;SDS011;52359;42.658;23.320;2023-12-22T15:24:37;4.22;;;1.48;;
43527;SDS011;52359;42.658;23.320;2023-12-22T15:27:05;2.92;;;1.85;;
43527;SDS011;52359;42.658;23.320;2023-12-22T15:29:32;3.03;;;1.77;;
43527;SDS011;52359;42.658;23.320;2023-12-22T15:31:58;5.80;;;1.95;;
43527;SDS011;52359;42.658;23.320;2023-12-22T15:34:25;11.35;;;2.08;;
43527;SDS011;52359;42.658;23.320;2023-12-22T15:36:51;4.70;;;1.88;;
43527;SDS011;52359;42.658;23.320;2023-12-22T15:39:17;8.02;;;2.17;;
43527;SDS011;52359;42.658;23.320;2023-12-22T15:41:43;2.75;;;2.03;;
43527;SDS011;52359;42.658;23.320;2023-12-22T15:44:09;6.65;;;2.33;;
43527;SDS011;52359;42.658;23.320;2023-12-22T15:46:35;3.90;;;2.67;;
43527;SDS011;52359;42.658;23.320;2023-12-22T15:49:01;3.83;;;2.35;;
43527;SDS011;52359;42.658;23.320;2023-12-22T15:51:26;4.50;;;3.20;;
43527;SDS011;52359;42.658;23.320;2023-12-22T15:53:52;4.68;;;2.20;;
43527;SDS011;52359;42.658;23.320;2023-12-22T15:56:18;7.72;;;2.90;;
43527;SDS011;52359;42.658;23.320;2023-12-22T15:58:44;5.13;;;2.58;;
43527;SDS011;52359;42.658;23.320;2023-12-22T16:01:10;12.88;;;2.45;;
43527;SDS011;52359;42.658;23.320;2023-12-22T16:03:40;2.05;;;1.80;;
43527;SDS011;52359;42.658;23.320;2023-12-22T16:06:06;2.70;;;1.98;;
43527;SDS011;52359;42.658;23.320;2023-12-22T16:08:32;5.60;;;3.08;;
43527;SDS011;52359;42.658;23.320;2023-12-22T16:11:00;4.75;;;2.15;;
43527;SDS011;52359;42.658;23.320;2023-12-22T16:13:30;5.32;;;2.30;;
43527;SDS011;52359;42.658;23.320;2023-12-22T16:15:57;4.57;;;2.40;;
43527;SDS011;52359;42.658;23.320;2023-12-22T16:18:23;6.18;;;2.22;;
43527;SDS011;52359;42.658;23.320;2023-12-22T16:20:49;5.68;;;2.17;;
43527;SDS011;52359;42.658;23.320;2023-12-22T16:23:14;5.50;;;2.58;;
43527;SDS011;52359;42.658;23.320;2023-12-22T16:25:40;4.50;;;2.78;;
43527;SDS011;52359;42.658;23.320;2023-12-22T16:28:06;12.48;;;4.05;;
43527;SDS011;52359;42.658;23.320;2023-12-22T16:30:32;16.60;;;4.88;;
43527;SDS011;52359;42.658;23.320;2023-12-22T16:32:58;3.75;;;1.92;;
43527;SDS011;52359;42.658;23.320;2023-12-22T16:35:25;6.90;;;3.05;;
43527;SDS011;52359;42.658;23.320;2023-12-22T16:37:50;6.45;;;3.80;;
43527;SDS011;52359;42.658;23.320;2023-12-22T16:40:16;13.57;;;6.38;;
43527;SDS011;52359;42.658;23.320;2023-12-22T16:42:42;11.75;;;5.47;;
43527;SDS011;52359;42.658;23.320;2023-12-22T16:45:08;9.02;;;4.60;;
43527;SDS011;52359;42.658;23.320;2023-12-22T16:47:34;11.02;;;4.35;;
43527;SDS011;52359;42.658;23.320;2023-12-22T16:50:00;28.45;;;11.70;;
43527;SDS011;52359;42.658;23.320;2023-12-22T16:52:26;6.20;;;3.60;;
43527;SDS011;52359;42.658;23.320;2023-12-22T16:54:54;10.20;;;3.00;;
43527;SDS011;52359;42.658;23.320;2023-12-22T16:57:19;6.72;;;2.50;;
43527;SDS011;52359;42.658;23.320;2023-12-22T16:59:45;4.70;;;2.25;;
43527;SDS011;52359;42.658;23.320;2023-12-22T17:02:11;6.55;;;2.47;;
43527;SDS011;52359;42.658;23.320;2023-12-22T17:04:37;8.13;;;4.30;;
43527;SDS011;52359;42.658;23.320;2023-12-22T17:07:02;9.15;;;4.20;;
43527;SDS011;52359;42.658;23.320;2023-12-22T17:09:28;4.93;;;2.42;;
43527;SDS011;52359;42.658;23.320;2023-12-22T17:11:55;4.70;;;2.42;;
43527;SDS011;52359;42.658;23.320;2023-12-22T17:14:20;7.35;;;3.15;;
43527;SDS011;52359;42.658;23.320;2023-12-22T17:16:47;6.68;;;3.30;;
43527;SDS011;52359;42.658;23.320;2023-12-22T17:19:12;16.73;;;4.95;;
43527;SDS011;52359;42.658;23.320;2023-12-22T17:21:38;9.30;;;3.63;;
43527;SDS011;52359;42.658;23.320;2023-12-22T17:24:07;4.63;;;2.05;;
43527;SDS011;52359;42.658;23.320;2023-12-22T17:26:33;4.88;;;1.70;;
43527;SDS011;52359;42.658;23.320;2023-12-22T17:28:59;2.78;;;2.22;;
43527;SDS011;52359;42.658;23.320;2023-12-22T17:31:25;3.45;;;2.20;;
43527;SDS011;52359;42.658;23.320;2023-12-22T17:33:52;6.80;;;1.95;;
43527;SDS011;52359;42.658;23.320;2023-12-22T17:36:18;6.80;;;3.55;;
43527;SDS011;52359;42.658;23.320;2023-12-22T17:38:44;7.85;;;3.70;;
43527;SDS011;52359;42.658;23.320;2023-12-22T17:41:10;6.13;;;2.83;;
43527;SDS011;52359;42.658;23.320;2023-12-22T17:43:36;8.75;;;2.97;;
43527;SDS011;52359;42.658;23.320;2023-12-22T17:46:01;6.95;;;3.28;;
43527;SDS011;52359;42.658;23.320;2023-12-22T17:48:27;5.97;;;3.35;;
43527;SDS011;52359;42.658;23.320;2023-12-22T17:50:53;6.90;;;3.03;;
43527;SDS011;52359;42.658;23.320;2023-12-22T17:53:19;6.43;;;2.92;;
43527;SDS011;52359;42.658;23.320;2023-12-22T17:55:49;4.30;;;2.53;;
43527;SDS011;52359;42.658;23.320;2023-12-22T17:58:15;4.38;;;2.10;;
43527;SDS011;52359;42.658;23.320;2023-12-22T18:00:41;3.75;;;1.85;;
43527;SDS011;52359;42.658;23.320;2023-12-22T18:03:07;7.85;;;2.42;;
43527;SDS011;52359;42.658;23.320;2023-12-22T18:05:33;6.15;;;2.03;;
43527;SDS011;52359;42.658;23.320;2023-12-22T18:07:59;4.45;;;2.45;;
43527;SDS011;52359;42.658;23.320;2023-12-22T18:10:26;4.15;;;2.40;;
43527;SDS011;52359;42.658;23.320;2023-12-22T18:12:51;2.63;;;1.80;;
43527;SDS011;52359;42.658;23.320;2023-12-22T18:15:17;3.95;;;2.03;;
43527;SDS011;52359;42.658;23.320;2023-12-22T18:17:43;5.03;;;1.98;;
43527;SDS011;52359;42.658;23.320;2023-12-22T18:20:08;4.00;;;1.85;;
43527;SDS011;52359;42.658;23.320;2023-12-22T18:22:35;5.18;;;2.67;;
43527;SDS011;52359;42.658;23.320;2023-12-22T18:25:00;5.47;;;2.65;;
43527;SDS011;52359;42.658;23.320;2023-12-22T18:27:29;11.80;;;3.33;;
43527;SDS011;52359;42.658;23.320;2023-12-22T18:29:54;4.28;;;2.10;;
43527;SDS011;52359;42.658;23.320;2023-12-22T18:32:20;6.97;;;2.22;;
43527;SDS011;52359;42.658;23.320;2023-12-22T18:34:47;10.40;;;2.15;;
43527;SDS011;52359;42.658;23.320;2023-12-22T18:37:13;4.82;;;2.58;;
43527;SDS011;52359;42.658;23.320;2023-12-22T18:39:39;6.38;;;2.53;;
43527;SDS011;52359;42.658;23.320;2023-12-22T18:42:06;2.30;;;1.85;;
43527;SDS011;52359;42.658;23.320;2023-12-22T18:44:32;3.17;;;1.90;;
43527;SDS011;52359;42.658;23.320;2023-12-22T18:46:58;5.75;;;1.20;;
43527;SDS011;52359;42.658;23.320;2023-12-22T18:49:24;3.35;;;2.35;;
43527;SDS011;52359;42.658;23.320;2023-12-22T18:51:50;1.70;;;1.20;;
43527;SDS011;52359;42.658;23.320;2023-12-22T18:54:16;3.28;;;1.40;;
43527;SDS011;52359;42.658;23.320;2023-12-22T18:56:42;2.70;;;1.70;;
43527;SDS011;52359;42.658;23.320;2023-12-22T18:59:10;3.03;;;1.60;;
43527;SDS011;52359;42.658;23.320;2023-12-22T19:01:36;2.30;;;1.55;;
43527;SDS011;52359;42.658;23.320;2023-12-22T19:04:02;2.30;;;1.35;;
43527;SDS011;52359;42.658;23.320;2023-12-22T19:06:28;3.60;;;1.63;;
43527;SDS011;52359;42.658;23.320;2023-12-22T19:08:54;5.22;;;1.67;;
43527;SDS011;52359;42.658;23.320;2023-12-22T19:11:21;5.43;;;2.55;;
43527;SDS011;52359;42.658;23.320;2023-12-22T19:13:47;4.65;;;2.13;;
43527;SDS011;52359;42.658;23.320;2023-12-22T19:16:14;5.07;;;2.30;;
43527;SDS011;52359;42.658;23.320;2023-12-22T19:18:40;1.80;;;1.52;;
43527;SDS011;52359;42.658;23.320;2023-12-22T19:21:06;3.05;;;1.40;;
43527;SDS011;52359;42.658;23.320;2023-12-22T19:23:32;1.10;;;1.00;;
43527;SDS011;52359;42.658;23.320;2023-12-22T19:25:58;1.15;;;1.08;;
43527;SDS011;52359;42.658;23.320;2023-12-22T19:28:24;2.40;;;1.17;;
43527;SDS011;52359;42.658;23.320;2023-12-22T19:30:50;3.63;;;1.88;;
43527;SDS011;52359;42.658;23.320;2023-12-22T19:33:17;3.65;;;1.65;;
43527;SDS011;52359;42.658;23.320;2023-12-22T19:35:46;5.45;;;1.73;;
43527;SDS011;52359;42.658;23.320;2023-12-22T19:38:12;1.50;;;1.40;;
43527;SDS011;52359;42.658;23.320;2023-12-22T19:40:40;2.00;;;1.45;;
43527;SDS011;52359;42.658;23.320;2023-12-22T19:43:08;1.48;;;1.02;;
43527;SDS011;52359;42.658;23.320;2023-12-22T19:45:34;3.38;;;1.42;;
43527;SDS011;52359;42.658;23.320;2023-12-22T19:48:00;2.70;;;1.50;;
43527;SDS011;52359;42.658;23.320;2023-12-22T19:50:26;3.20;;;1.27;;
43527;SDS011;52359;42.658;23.320;2023-12-22T19:52:53;2.97;;;1.02;;
43527;SDS011;52359;42.658;23.320;2023-12-22T19:55:19;5.00;;;1.05;;
43527;SDS011;52359;42.658;23.320;2023-12-22T19:57:46;5.05;;;0.85;;
43527;SDS011;52359;42.658;23.320;2023-12-22T20:00:12;1.00;;;0.85;;
43527;SDS011;52359;42.658;23.320;2023-12-22T20:02:38;0.95;;;0.93;;
43527;SDS011;52359;42.658;23.320;2023-12-22T20:05:04;2.63;;;1.20;;
43527;SDS011;52359;42.658;23.320;2023-12-22T20:07:30;2.38;;;1.20;;
43527;SDS011;52359;42.658;23.320;2023-12-22T20:09:56;1.83;;;1.00;;
43527;SDS011;52359;42.658;23.320;2023-12-22T20:12:22;1.85;;;1.00;;
43527;SDS011;52359;42.658;23.320;2023-12-22T20:14:48;1.75;;;1.25;;
43527;SDS011;52359;42.658;23.320;2023-12-22T20:17:14;3.60;;;1.67;;
43527;SDS011;52359;42.658;23.320;2023-12-22T20:19:40;1.60;;;1.35;;
43527;SDS011;52359;42.658;23.320;2023-12-22T20:22:07;1.58;;;1.20;;
43527;SDS011;52359;42.658;23.320;2023-12-22T20:24:33;1.60;;;1.50;;
43527;SDS011;52359;42.658;23.320;2023-12-22T20:26:59;1.63;;;0.98;;
43527;SDS011;52359;42.658;23.320;2023-12-22T20:29:25;2.70;;;1.00;;
43527;SDS011;52359;42.658;23.320;2023-12-22T20:31:51;1.20;;;1.10;;
43527;SDS011;52359;42.658;23.320;2023-12-22T20:34:17;5.35;;;0.85;;
43527;SDS011;52359;42.658;23.320;2023-12-22T20:36:43;4.45;;;0.77;;
43527;SDS011;52359;42.658;23.320;2023-12-22T20:39:10;2.92;;;1.00;;
43527;SDS011;52359;42.658;23.320;2023-12-22T20:41:36;1.55;;;0.85;;
43527;SDS011;52359;42.658;23.320;2023-12-22T20:44:04;2.08;;;0.50;;
43527;SDS011;52359;42.658;23.320;2023-12-22T20:46:30;1.15;;;0.90;;
43527;SDS011;52359;42.658;23.320;2023-12-22T20:48:56;2.85;;;1.00;;
43527;SDS011;52359;42.658;23.320;2023-12-22T20:51:22;0.95;;;0.88;;
43527;SDS011;52359;42.658;23.320;2023-12-22T20:53:48;1.35;;;0.98;;
43527;SDS011;52359;42.658;23.320;2023-12-22T20:56:18;1.00;;;1.00;;
43527;SDS011;52359;42.658;23.320;2023-12-22T20:58:45;0.70;;;0.70;;
43527;SDS011;52359;42.658;23.320;2023-12-22T21:01:11;2.28;;;1.20;;
43527;SDS011;52359;42.658;23.320;2023-12-22T21:03:37;1.05;;;0.95;;
43527;SDS011;52359;42.658;23.320;2023-12-22T21:06:07;1.30;;;0.95;;
43527;SDS011;52359;42.658;23.320;2023-12-22T21:08:33;1.25;;;1.08;;
43527;SDS011;52359;42.658;23.320;2023-12-22T21:11:00;1.50;;;0.90;;
43527;SDS011;52359;42.658;23.320;2023-12-22T21:13:29;1.40;;;1.00;;
43527;SDS011;52359;42.658;23.320;2023-12-22T21:15:59;2.72;;;1.75;;
43527;SDS011;52359;42.658;23.320;2023-12-22T21:18:25;1.30;;;1.20;;
43527;SDS011;52359;42.658;23.320;2023-12-22T21:20:51;4.13;;;1.10;;
43527;SDS011;52359;42.658;23.320;2023-12-22T21:23:17;2.67;;;1.30;;
43527;SDS011;52359;42.658;23.320;2023-12-22T21:25:43;1.55;;;1.20;;
43527;SDS011;52359;42.658;23.320;2023-12-22T21:28:09;2.63;;;1.63;;
43527;SDS011;52359;42.658;23.320;2023-12-22T21:30:35;3.50;;;1.55;;
43527;SDS011;52359;42.658;23.320;2023-12-22T21:33:02;1.25;;;1.00;;
43527;SDS011;52359;42.658;23.320;2023-12-22T21:35:29;7.75;;;1.35;;
43527;SDS011;52359;42.658;23.320;2023-12-22T21:37:55;4.60;;;1.17;;
43527;SDS011;52359;42.658;23.320;2023-12-22T21:40:21;1.05;;;0.82;;
43527;SDS011;52359;42.658;23.320;2023-12-22T21:42:47;2.53;;;0.93;;
43527;SDS011;52359;42.658;23.320;2023-12-22T21:45:14;1.17;;;0.98;;
43527;SDS011;52359;42.658;23.320;2023-12-22T21:47:42;0.90;;;0.90;;
43527;SDS011;52359;42.658;23.320;2023-12-22T21:50:08;4.20;;;0.75;;
43527;SDS011;52359;42.658;23.320;2023-12-22T21:52:35;3.28;;;0.98;;
43527;SDS011;52359;42.658;23.320;2023-12-22T21:55:04;0.60;;;0.60;;
43527;SDS011;52359;42.658;23.320;2023-12-22T21:57:30;0.93;;;0.75;;
43527;SDS011;52359;42.658;23.320;2023-12-22T21:59:56;0.60;;;0.60;;
43527;SDS011;52359;42.658;23.320;2023-12-22T22:02:22;1.75;;;0.73;;
43527;SDS011;52359;42.658;23.320;2023-12-22T22:04:48;2.20;;;0.82;;
43527;SDS011;52359;42.658;23.320;2023-12-22T22:07:14;4.70;;;0.80;;
43527;SDS011;52359;42.658;23.320;2023-12-22T22:09:42;2.50;;;0.80;;
43527;SDS011;52359;42.658;23.320;2023-12-22T22:12:08;0.52;;;0.52;;
43527;SDS011;52359;42.658;23.320;2023-12-22T22:14:34;5.82;;;0.85;;
43527;SDS011;52359;42.658;23.320;2023-12-22T22:17:00;0.68;;;0.68;;
43527;SDS011;52359;42.658;23.320;2023-12-22T22:19:26;1.00;;;0.80;;
43527;SDS011;52359;42.658;23.320;2023-12-22T22:21:53;0.55;;;0.55;;
43527;SDS011;52359;42.658;23.320;2023-12-22T22:24:19;1.80;;;0.95;;
43527;SDS011;52359;42.658;23.320;2023-12-22T22:26:45;0.70;;;0.70;;
43527;SDS011;52359;42.658;23.320;2023-12-22T22:29:11;1.65;;;0.90;;
43527;SDS011;52359;42.658;23.320;2023-12-22T22:31:41;1.17;;;1.08;;
43527;SDS011;52359;42.658;23.320;2023-12-22T22:34:08;2.17;;;1.20;;
43527;SDS011;52359;42.658;23.320;2023-12-22T22:36:34;3.20;;;0.82;;
43527;SDS011;52359;42.658;23.320;2023-12-22T22:39:00;2.55;;;0.90;;
43527;SDS011;52359;42.658;23.320;2023-12-22T22:41:27;1.52;;;0.90;;
43527;SDS011;52359;42.658;23.320;2023-12-22T22:43:53;2.67;;;0.95;;
43527;SDS011;52359;42.658;23.320;2023-12-22T22:46:19;3.13;;;0.90;;
43527;SDS011;52359;42.658;23.320;2023-12-22T22:48:45;1.08;;;0.98;;
43527;SDS011;52359;42.658;23.320;2023-12-22T22:51:24;1.20;;;1.05;;
43527;SDS011;52359;42.658;23.320;2023-12-22T22:53:51;2.97;;;2.13;;
43527;SDS011;52359;42.658;23.320;2023-12-22T22:56:17;2.08;;;1.65;;
43527;SDS011;52359;42.658;23.320;2023-12-22T22:58:43;1.42;;;1.20;;
43527;SDS011;52359;42.658;23.320;2023-12-22T23:01:10;7.10;;;3.00;;
43527;SDS011;52359;42.658;23.320;2023-12-22T23:03:36;5.60;;;3.67;;
43527;SDS011;52359;42.658;23.320;2023-12-22T23:06:03;11.55;;;4.55;;
43527;SDS011;52359;42.658;23.320;2023-12-22T23:08:29;11.43;;;5.18;;
43527;SDS011;52359;42.658;23.320;2023-12-22T23:10:55;7.10;;;4.88;;
43527;SDS011;52359;42.658;23.320;2023-12-22T23:13:21;9.10;;;5.03;;
43527;SDS011;52359;42.658;23.320;2023-12-22T23:15:47;11.43;;;4.45;;
43527;SDS011;52359;42.658;23.320;2023-12-22T23:18:13;6.15;;;4.05;;
43527;SDS011;52359;42.658;23.320;2023-12-22T23:20:39;10.50;;;4.75;;
43527;SDS011;52359;42.658;23.320;2023-12-22T23:23:05;9.65;;;4.47;;
43527;SDS011;52359;42.658;23.320;2023-12-22T23:25:30;11.43;;;4.57;;
43527;SDS011;52359;42.658;23.320;2023-12-22T23:27:56;9.70;;;4.70;;
43527;SDS011;52359;42.658;23.320;2023-12-22T23:30:22;8.85;;;5.13;;
43527;SDS011;52359;42.658;23.320;2023-12-22T23:32:48;14.55;;;4.82;;
43527;SDS011;52359;42.658;23.320;2023-12-22T23:35:14;7.95;;;4.47;;
43527;SDS011;52359;42.658;23.320;2023-12-22T23:37:39;6.15;;;4.38;;
43527;SDS011;52359;42.658;23.320;2023-12-22T23:40:05;6.60;;;4.20;;
43527;SDS011;52359;42.658;23.320;2023-12-22T23:42:31;12.52;;;5.75;;
43527;SDS011;52359;42.658;23.320;2023-12-22T23:44:57;10.43;;;5.10;;
43527;SDS011;52359;42.658;23.320;2023-12-22T23:47:23;9.52;;;5.03;;
43527;SDS011;52359;42.658;23.320;2023-12-22T23:49:48;15.05;;;4.32;;
43527;SDS011;52359;42.658;23.320;2023-12-22T23:52:14;9.57;;;4.60;;
43527;SDS011;52359;42.658;23.320;2023-12-22T23:54:40;6.22;;;4.07;;
43527;SDS011;52359;42.658;23.320;2023-12-22T23:57:06;8.35;;;5.00;;
43527;SDS011;52359;42.658;23.320;2023-12-22T23:59:32;9.95;;;5.40;;
